createdAt,value
2018-12-24T00:00:23.651Z,10.60
2018-12-24T00:02:50.428Z,10.60
2018-12-24T00:05:17.162Z,10.60
2018-12-24T00:07:44.096Z,10.50
2018-12-24T00:10:11.338Z,10.50
2018-12-24T00:12:38.182Z,10.50
2018-12-24T00:15:05.036Z,10.50
2018-12-24T00:17:31.930Z,10.50
2018-12-24T00:19:58.885Z,10.50
2018-12-24T00:22:25.610Z,10.50
2018-12-24T00:24:52.646Z,10.50
2018-12-24T00:27:19.658Z,10.50
2018-12-24T00:29:46.456Z,10.50
2018-12-24T00:32:13.452Z,10.40
2018-12-24T00:34:40.003Z,10.40
2018-12-24T00:37:07.015Z,10.40
2018-12-24T00:39:33.808Z,10.40
2018-12-24T00:42:00.526Z,10.40
2018-12-24T00:44:27.350Z,10.40
2018-12-24T00:46:55.641Z,10.60
2018-12-24T00:49:22.692Z,10.40
2018-12-24T00:51:49.643Z,10.40
2018-12-24T00:54:16.560Z,10.40
2018-12-24T00:56:43.744Z,10.40
2018-12-24T00:59:10.476Z,10.30
2018-12-24T01:01:37.147Z,10.30
2018-12-24T01:04:03.764Z,10.30
2018-12-24T01:06:31.010Z,10.30
2018-12-24T01:08:57.622Z,10.30
2018-12-24T01:11:24.675Z,10.30
2018-12-24T01:13:53.291Z,10.30
2018-12-24T01:16:20.011Z,10.30
2018-12-24T01:18:47.174Z,10.30
2018-12-24T01:21:13.860Z,10.30
2018-12-24T01:23:42.408Z,10.30
2018-12-24T01:26:15.610Z,10.30
2018-12-24T01:28:42.413Z,10.30
2018-12-24T01:31:10.553Z,10.30
2018-12-24T01:33:37.424Z,10.20
2018-12-24T01:36:05.297Z,10.20
2018-12-24T01:38:32.133Z,10.20
2018-12-24T01:40:58.784Z,10.20
2018-12-24T01:43:25.601Z,10.20
2018-12-24T01:45:53.746Z,10.20
2018-12-24T01:48:20.367Z,10.20
2018-12-24T01:50:47.115Z,10.20
2018-12-24T01:53:15.389Z,10.20
2018-12-24T01:55:42.014Z,10.20
2018-12-24T01:58:08.731Z,10.20
2018-12-24T02:00:35.338Z,10.20
2018-12-24T02:03:03.018Z,10.20
2018-12-24T02:05:29.650Z,10.20
2018-12-24T02:07:56.276Z,10.20
2018-12-24T02:10:22.984Z,10.10
2018-12-24T02:12:49.792Z,10.10
2018-12-24T02:15:18.206Z,10.10
2018-12-24T02:17:44.832Z,10.10
2018-12-24T02:20:11.483Z,10.10
2018-12-24T02:22:38.556Z,10.10
2018-12-24T02:25:05.152Z,10.10
2018-12-24T02:27:32.020Z,10.10
2018-12-24T02:29:58.718Z,10.10
2018-12-24T02:32:25.793Z,10.10
2018-12-24T02:34:52.579Z,10.10
2018-12-24T02:37:19.649Z,10.10
2018-12-24T02:39:46.472Z,10.10
2018-12-24T02:42:13.150Z,10.10
2018-12-24T02:44:39.928Z,10.10
2018-12-24T02:47:06.561Z,10.10
2018-12-24T02:49:33.408Z,10.00
2018-12-24T02:52:01.486Z,10.00
2018-12-24T02:54:29.259Z,10.00
2018-12-24T02:56:56.126Z,10.00
2018-12-24T02:59:22.861Z,10.00
2018-12-24T03:01:49.673Z,10.00
2018-12-24T03:04:18.325Z,10.00
2018-12-24T03:06:46.357Z,10.00
2018-12-24T03:09:13.657Z,10.00
2018-12-24T03:11:40.741Z,10.00
2018-12-24T03:14:07.454Z,10.00
2018-12-24T03:16:34.222Z,10.00
2018-12-24T03:19:01.059Z,10.00
2018-12-24T03:21:29.156Z,10.00
2018-12-24T03:23:55.857Z,10.00
2018-12-24T03:26:22.515Z,10.00
2018-12-24T03:28:49.343Z,10.00
2018-12-24T03:31:17.915Z,10.00
2018-12-24T03:33:44.604Z,9.90
2018-12-24T03:36:11.449Z,9.90
2018-12-24T03:38:38.252Z,9.90
2018-12-24T03:41:05.294Z,9.90
2018-12-24T03:43:32.033Z,9.90
2018-12-24T03:45:58.967Z,9.90
2018-12-24T03:48:25.601Z,9.90
2018-12-24T03:50:52.443Z,9.90
2018-12-24T03:53:19.349Z,9.90
2018-12-24T03:55:48.030Z,9.90
2018-12-24T03:58:14.752Z,9.90
2018-12-24T04:00:41.627Z,9.90
2018-12-24T04:03:08.457Z,9.90
2018-12-24T04:05:35.313Z,9.90
2018-12-24T04:08:02.141Z,9.80
2018-12-24T04:10:29.105Z,9.80
2018-12-24T04:12:55.728Z,9.80
2018-12-24T04:15:22.415Z,9.80
2018-12-24T04:17:50.316Z,9.80
2018-12-24T04:20:16.997Z,9.80
2018-12-24T04:22:43.667Z,9.80
2018-12-24T04:25:14.171Z,9.80
2018-12-24T04:27:42.936Z,9.80
2018-12-24T04:30:09.679Z,9.80
2018-12-24T04:32:36.338Z,9.80
2018-12-24T04:35:04.176Z,9.70
2018-12-24T04:37:30.732Z,9.70
2018-12-24T04:39:58.504Z,9.70
2018-12-24T04:42:26.379Z,9.70
2018-12-24T04:44:53.204Z,9.70
2018-12-24T04:49:58.972Z,9.60
2018-12-24T04:55:05.208Z,9.90
2018-12-24T04:57:31.962Z,9.70
2018-12-24T04:59:59.770Z,9.60
2018-12-24T05:02:26.524Z,9.60
2018-12-24T05:04:53.261Z,9.60
2018-12-24T05:07:20.416Z,9.70
2018-12-24T05:09:47.346Z,9.60
2018-12-24T05:12:15.068Z,9.60
2018-12-24T05:14:41.904Z,9.60
2018-12-24T05:17:08.535Z,9.60
2018-12-24T05:19:36.352Z,9.60
2018-12-24T05:22:03.614Z,9.60
2018-12-24T05:24:30.524Z,9.60
2018-12-24T05:26:57.152Z,9.60
2018-12-24T05:29:24.243Z,9.60
2018-12-24T05:31:50.860Z,9.60
2018-12-24T05:34:17.714Z,9.60
2018-12-24T05:36:44.390Z,9.50
2018-12-24T05:39:11.516Z,9.50
2018-12-24T05:41:38.679Z,9.50
2018-12-24T05:44:05.286Z,9.50
2018-12-24T05:46:32.128Z,9.30
2018-12-24T05:48:58.998Z,9.50
2018-12-24T05:51:25.731Z,9.50
2018-12-24T05:53:54.244Z,9.50
2018-12-24T05:56:20.890Z,9.50
2018-12-24T05:58:47.715Z,9.50
2018-12-24T06:01:14.627Z,9.50
2018-12-24T06:03:41.476Z,9.50
2018-12-24T06:06:08.372Z,9.50
2018-12-24T06:08:35.264Z,9.50
2018-12-24T06:11:02.028Z,9.50
2018-12-24T06:13:28.991Z,9.50
2018-12-24T06:15:55.680Z,9.50
2018-12-24T06:18:22.918Z,9.50
2018-12-24T06:20:49.720Z,9.50
2018-12-24T06:23:16.559Z,9.50
2018-12-24T06:25:43.337Z,9.50
2018-12-24T06:28:10.142Z,9.50
2018-12-24T06:30:37.018Z,9.00
2018-12-24T06:33:03.824Z,9.50
2018-12-24T06:35:31.000Z,9.50
2018-12-24T06:37:57.950Z,9.50
2018-12-24T06:40:29.111Z,9.50
2018-12-24T06:42:57.683Z,9.50
2018-12-24T06:45:24.558Z,9.40
2018-12-24T06:47:51.302Z,9.40
2018-12-24T06:50:18.186Z,9.60
2018-12-24T06:52:45.264Z,9.40
2018-12-24T06:55:12.076Z,9.40
2018-12-24T06:57:40.216Z,9.40
2018-12-24T07:00:07.307Z,9.40
2018-12-24T07:02:34.169Z,9.40
2018-12-24T07:05:00.911Z,9.40
2018-12-24T07:07:27.561Z,9.40
2018-12-24T07:09:54.295Z,9.40
2018-12-24T07:12:22.339Z,9.40
2018-12-24T07:14:49.064Z,9.40
2018-12-24T07:17:15.721Z,9.40
2018-12-24T07:19:45.067Z,9.40
2018-12-24T07:22:12.280Z,9.40
2018-12-24T07:24:39.069Z,9.40
2018-12-24T07:27:05.982Z,9.40
2018-12-24T07:29:32.923Z,9.40
2018-12-24T07:31:59.671Z,9.40
2018-12-24T07:34:32.357Z,9.40
2018-12-24T07:36:54.888Z,9.40
2018-12-24T07:39:23.484Z,9.40
2018-12-24T07:41:50.121Z,9.40
2018-12-24T07:44:23.947Z,9.40
2018-12-24T07:46:45.467Z,9.40
2018-12-24T07:49:12.291Z,9.40
2018-12-24T07:51:39.025Z,9.40
2018-12-24T07:54:06.240Z,9.40
2018-12-24T07:56:32.973Z,9.40
2018-12-24T07:59:01.049Z,9.40
2018-12-24T08:01:27.827Z,9.40
2018-12-24T08:03:55.077Z,9.40
2018-12-24T08:06:21.737Z,9.40
2018-12-24T08:08:48.557Z,9.40
2018-12-24T08:11:15.939Z,9.40
2018-12-24T08:13:42.724Z,9.40
2018-12-24T08:16:09.643Z,9.40
2018-12-24T08:18:36.568Z,9.40
2018-12-24T08:21:03.396Z,9.40
2018-12-24T08:23:32.114Z,9.40
2018-12-24T08:25:58.936Z,9.20
2018-12-24T08:28:26.071Z,9.30
2018-12-24T08:30:52.944Z,9.30
2018-12-24T08:33:20.087Z,9.30
2018-12-24T08:35:48.934Z,9.30
2018-12-24T08:38:15.825Z,9.30
2018-12-24T08:40:42.760Z,9.30
2018-12-24T08:43:09.697Z,9.30
2018-12-24T08:45:36.304Z,9.30
2018-12-24T08:48:02.951Z,9.30
2018-12-24T08:50:29.702Z,9.30
2018-12-24T08:52:56.361Z,9.30
2018-12-24T08:55:23.408Z,9.30
2018-12-24T08:57:50.568Z,9.30
2018-12-24T09:00:17.519Z,9.30
2018-12-24T09:02:46.744Z,9.30
2018-12-24T09:05:13.543Z,9.30
2018-12-24T09:07:40.493Z,9.30
2018-12-24T09:10:08.924Z,9.30
2018-12-24T09:12:35.718Z,9.30
2018-12-24T09:15:02.369Z,9.30
2018-12-24T09:17:29.198Z,9.30
2018-12-24T09:19:56.291Z,9.30
2018-12-24T09:22:24.150Z,9.30
2018-12-24T09:24:50.776Z,9.30
2018-12-24T09:27:17.706Z,9.30
2018-12-24T09:29:44.759Z,9.30
2018-12-24T09:32:13.113Z,9.30
2018-12-24T09:34:40.319Z,9.30
2018-12-24T09:37:06.946Z,9.30
2018-12-24T09:39:33.868Z,9.30
2018-12-24T09:42:00.640Z,9.30
2018-12-24T09:44:27.430Z,9.30
2018-12-24T09:46:54.196Z,9.30
2018-12-24T09:49:22.318Z,9.30
2018-12-24T09:51:50.543Z,9.30
2018-12-24T09:54:17.279Z,9.30
2018-12-24T09:56:45.446Z,9.30
2018-12-24T09:59:13.222Z,9.30
2018-12-24T10:01:40.146Z,9.40
2018-12-24T10:04:06.905Z,9.40
2018-12-24T10:06:33.701Z,9.40
2018-12-24T10:11:39.740Z,9.40
2018-12-24T10:14:06.577Z,9.40
2018-12-24T10:16:33.324Z,9.40
2018-12-24T10:19:02.091Z,9.40
2018-12-24T10:21:30.010Z,9.40
2018-12-24T10:23:57.818Z,9.40
2018-12-24T10:26:25.111Z,9.40
2018-12-24T10:28:51.888Z,9.40
2018-12-24T10:31:18.992Z,9.40
2018-12-24T10:33:45.852Z,9.40
2018-12-24T10:36:13.779Z,9.40
2018-12-24T10:38:40.784Z,9.40
2018-12-24T10:41:07.649Z,9.40
2018-12-24T10:43:34.428Z,9.40
2018-12-24T10:46:01.201Z,9.40
2018-12-24T10:48:29.029Z,9.40
2018-12-24T10:50:55.875Z,9.40
2018-12-24T10:53:22.987Z,9.40
2018-12-24T10:55:49.755Z,9.50
2018-12-24T10:58:16.861Z,9.50
2018-12-24T11:00:43.644Z,9.50
2018-12-24T11:03:10.546Z,9.50
2018-12-24T11:05:38.995Z,9.50
2018-12-24T11:08:05.819Z,9.50
2018-12-24T11:10:32.595Z,9.50
2018-12-24T11:12:59.640Z,9.50
2018-12-24T11:15:26.279Z,9.50
2018-12-24T11:17:52.900Z,9.50
2018-12-24T11:20:19.642Z,9.50
2018-12-24T11:22:46.583Z,9.50
2018-12-24T11:25:14.212Z,9.50
2018-12-24T11:27:42.254Z,9.50
2018-12-24T11:30:09.011Z,9.60
2018-12-24T11:32:35.636Z,9.60
2018-12-24T11:35:02.283Z,9.50
2018-12-24T11:37:30.797Z,9.60
2018-12-24T11:39:57.504Z,9.60
2018-12-24T11:42:26.016Z,9.60
2018-12-24T11:44:53.790Z,9.60
2018-12-24T11:47:21.942Z,9.60
2018-12-24T11:49:48.536Z,9.60
2018-12-24T11:52:15.223Z,9.60
2018-12-24T11:54:43.759Z,9.60
2018-12-24T11:57:11.653Z,9.70
2018-12-24T11:59:39.460Z,9.70
2018-12-24T12:02:09.876Z,9.70
2018-12-24T12:07:13.850Z,9.60
2018-12-24T12:09:40.637Z,9.70
2018-12-24T12:12:07.259Z,9.70
2018-12-24T12:14:35.327Z,9.70
2018-12-24T12:17:02.107Z,9.50
2018-12-24T12:19:28.922Z,9.70
2018-12-24T12:21:57.439Z,9.70
2018-12-24T12:24:24.767Z,9.70
2018-12-24T12:26:53.060Z,9.70
2018-12-24T12:29:19.863Z,9.70
2018-12-24T12:31:46.603Z,9.70
2018-12-24T12:34:13.346Z,9.70
2018-12-24T12:36:40.200Z,9.80
2018-12-24T12:39:07.245Z,9.70
2018-12-24T12:41:34.196Z,9.80
2018-12-24T12:44:02.163Z,9.80
2018-12-24T12:46:28.998Z,9.80
2018-12-24T12:48:57.303Z,9.80
2018-12-24T12:51:24.353Z,9.80
2018-12-24T12:53:52.062Z,9.80
2018-12-24T12:56:20.266Z,9.80
2018-12-24T12:58:46.887Z,9.80
2018-12-24T13:01:13.652Z,9.80
2018-12-24T13:03:40.614Z,9.80
2018-12-24T13:06:07.386Z,9.80
2018-12-24T13:08:34.219Z,9.80
2018-12-24T13:11:00.870Z,9.80
2018-12-24T13:13:27.563Z,9.80
2018-12-24T13:15:59.480Z,9.80
2018-12-24T13:18:22.833Z,9.90
2018-12-24T13:20:49.550Z,9.90
2018-12-24T13:23:16.267Z,9.90
2018-12-24T13:25:42.914Z,9.90
2018-12-24T13:28:09.584Z,9.90
2018-12-24T13:30:36.396Z,9.90
2018-12-24T13:33:03.235Z,9.90
2018-12-24T13:35:29.882Z,9.90
2018-12-24T13:37:56.996Z,9.90
2018-12-24T13:40:23.747Z,9.90
2018-12-24T13:42:50.526Z,9.90
2018-12-24T13:45:17.156Z,9.90
2018-12-24T13:47:43.950Z,9.90
2018-12-24T13:50:11.075Z,9.90
2018-12-24T13:52:37.792Z,9.90
2018-12-24T13:55:04.603Z,9.90
2018-12-24T13:57:31.473Z,9.90
2018-12-24T13:59:58.543Z,9.90
2018-12-24T14:02:25.330Z,9.90
2018-12-24T14:04:52.199Z,9.50
2018-12-24T14:07:19.411Z,10.00
2018-12-24T14:09:46.215Z,10.00
2018-12-24T14:12:13.094Z,10.00
2018-12-24T14:14:39.886Z,10.00
2018-12-24T14:17:06.666Z,10.00
2018-12-24T14:19:33.417Z,10.00
2018-12-24T14:22:00.049Z,10.00
2018-12-24T14:24:26.810Z,10.00
2018-12-24T14:26:53.986Z,10.00
2018-12-24T14:29:20.731Z,10.00
2018-12-24T14:31:47.410Z,10.00
2018-12-24T14:34:14.263Z,10.00
2018-12-24T14:36:41.060Z,10.00
2018-12-24T14:39:07.882Z,10.00
2018-12-24T14:41:34.690Z,10.00
2018-12-24T14:44:01.522Z,10.00
2018-12-24T14:46:28.279Z,10.00
2018-12-24T14:48:55.055Z,10.00
2018-12-24T14:51:21.987Z,10.00
2018-12-24T14:53:48.861Z,10.00
2018-12-24T14:56:15.916Z,10.00
2018-12-24T14:58:42.853Z,10.00
2018-12-24T15:01:09.595Z,10.00
2018-12-24T15:03:36.373Z,10.00
2018-12-24T15:06:03.140Z,10.00
2018-12-24T15:08:30.040Z,10.00
2018-12-24T15:10:57.171Z,10.00
2018-12-24T15:13:24.404Z,10.10
2018-12-24T15:15:51.128Z,10.10
2018-12-24T15:18:17.829Z,10.10
2018-12-24T15:20:44.494Z,10.10
2018-12-24T15:23:11.275Z,10.10
2018-12-24T15:25:38.023Z,10.10
2018-12-24T15:28:04.806Z,10.10
2018-12-24T15:30:31.462Z,10.10
2018-12-24T15:32:58.269Z,10.10
2018-12-24T15:35:25.101Z,10.10
2018-12-24T15:37:51.931Z,10.00
2018-12-24T15:40:18.642Z,10.10
2018-12-24T15:42:45.341Z,10.10
2018-12-24T15:45:12.440Z,10.10
2018-12-24T15:47:39.367Z,10.10
2018-12-24T15:50:06.067Z,10.10
2018-12-24T15:52:32.696Z,10.10
2018-12-24T15:55:03.677Z,10.00
2018-12-24T15:57:34.250Z,10.10
2018-12-24T16:00:01.291Z,10.10
2018-12-24T16:02:28.194Z,10.00
2018-12-24T16:04:54.924Z,10.00
2018-12-24T16:07:21.666Z,10.00
2018-12-24T16:09:48.370Z,10.00
2018-12-24T16:12:15.179Z,10.00
2018-12-24T16:14:41.881Z,10.00
2018-12-24T16:17:08.824Z,10.00
2018-12-24T16:19:35.463Z,10.00
2018-12-24T16:22:02.118Z,10.00
2018-12-24T16:24:28.882Z,10.00
2018-12-24T16:26:56.033Z,10.00
2018-12-24T16:29:22.821Z,10.00
2018-12-24T16:31:49.850Z,10.00
2018-12-24T16:34:16.588Z,10.00
2018-12-24T16:36:50.124Z,10.00
2018-12-24T16:39:16.926Z,9.90
2018-12-24T16:41:43.542Z,10.00
2018-12-24T16:44:10.323Z,10.00
2018-12-24T16:46:36.958Z,10.00
2018-12-24T16:49:06.847Z,10.00
2018-12-24T16:51:35.428Z,10.00
2018-12-24T16:54:02.191Z,10.00
2018-12-24T16:56:28.812Z,10.00
2018-12-24T16:58:55.440Z,10.00
2018-12-24T17:01:22.058Z,9.90
2018-12-24T17:03:48.781Z,9.90
2018-12-24T17:06:15.432Z,9.90
2018-12-24T17:08:45.741Z,9.90
2018-12-24T17:11:13.168Z,9.90
2018-12-24T17:13:40.105Z,9.90
2018-12-24T17:16:06.757Z,9.90
2018-12-24T17:18:33.489Z,9.90
2018-12-24T17:21:00.145Z,9.90
2018-12-24T17:23:26.867Z,9.90
2018-12-24T17:25:53.632Z,9.90
2018-12-24T17:28:20.397Z,9.90
2018-12-24T17:30:47.346Z,9.90
2018-12-24T17:33:14.070Z,9.90
2018-12-24T17:35:40.709Z,9.90
2018-12-24T17:38:07.439Z,9.90
2018-12-24T17:40:34.189Z,9.90
2018-12-24T17:43:00.959Z,9.80
2018-12-24T17:45:27.957Z,9.80
2018-12-24T17:47:54.540Z,9.80
2018-12-24T17:50:21.254Z,9.80
2018-12-24T17:52:48.283Z,9.80
2018-12-24T17:55:15.053Z,9.80
2018-12-24T17:57:42.385Z,9.80
2018-12-24T18:00:09.067Z,9.80
2018-12-24T18:02:36.228Z,9.80
2018-12-24T18:05:03.191Z,9.80
2018-12-24T18:07:29.935Z,9.80
2018-12-24T18:09:56.572Z,9.80
2018-12-24T18:12:23.313Z,9.70
2018-12-24T18:14:50.103Z,9.70
2018-12-24T18:17:24.535Z,9.70
2018-12-24T18:19:45.224Z,9.70
2018-12-24T18:22:11.915Z,9.70
2018-12-24T18:24:39.171Z,9.70
2018-12-24T18:27:06.666Z,9.70
2018-12-24T18:29:33.298Z,9.70
2018-12-24T18:31:59.930Z,9.70
2018-12-24T18:34:27.252Z,9.70
2018-12-24T18:36:54.006Z,9.70
2018-12-24T18:39:21.214Z,9.70
2018-12-24T18:41:48.014Z,9.70
2018-12-24T18:44:14.738Z,9.70
2018-12-24T18:46:41.379Z,9.60
2018-12-24T18:49:08.105Z,9.60
2018-12-24T18:51:34.781Z,9.60
2018-12-24T18:54:01.581Z,9.60
2018-12-24T18:56:28.323Z,9.60
2018-12-24T18:58:55.429Z,9.60
2018-12-24T19:01:23.452Z,9.60
2018-12-24T19:03:50.233Z,9.60
2018-12-24T19:06:17.065Z,9.60
2018-12-24T19:08:44.263Z,9.60
2018-12-24T19:11:11.426Z,9.60
2018-12-24T19:13:38.143Z,9.60
2018-12-24T19:16:04.779Z,9.60
2018-12-24T19:18:31.519Z,9.50
2018-12-24T19:20:58.240Z,9.50
2018-12-24T19:23:24.876Z,9.50
2018-12-24T19:25:51.512Z,9.50
2018-12-24T19:28:18.714Z,9.50
2018-12-24T19:30:45.472Z,9.50
2018-12-24T19:33:12.212Z,9.50
2018-12-24T19:35:38.873Z,9.50
2018-12-24T19:38:07.902Z,9.40
2018-12-24T19:40:35.290Z,9.40
2018-12-24T19:43:01.954Z,9.40
2018-12-24T19:45:28.676Z,9.40
2018-12-24T19:47:55.597Z,9.40
2018-12-24T19:50:22.207Z,9.40
2018-12-24T19:52:48.878Z,9.40
2018-12-24T19:55:15.545Z,9.40
2018-12-24T19:57:42.469Z,9.40
2018-12-24T20:00:09.190Z,9.30
2018-12-24T20:02:36.122Z,9.30
2018-12-24T20:05:02.809Z,8.90
2018-12-24T20:07:29.634Z,9.30
2018-12-24T20:09:56.362Z,9.30
2018-12-24T20:12:23.352Z,9.30
2018-12-24T20:14:50.033Z,9.30
2018-12-24T20:17:17.036Z,9.20
2018-12-24T20:19:43.791Z,9.20
2018-12-24T20:22:10.469Z,9.20
2018-12-24T20:24:37.538Z,9.00
2018-12-24T20:27:04.389Z,9.20
2018-12-24T20:29:31.042Z,9.20
2018-12-24T20:31:57.699Z,9.20
2018-12-24T20:34:24.351Z,9.20
2018-12-24T20:36:50.979Z,9.10
2018-12-24T20:39:17.981Z,9.10
2018-12-24T20:41:44.587Z,9.10
2018-12-24T20:44:11.215Z,9.10
2018-12-24T20:46:38.062Z,9.10
2018-12-24T20:49:05.062Z,9.10
2018-12-24T20:51:31.799Z,9.10
2018-12-24T20:53:58.476Z,9.00
2018-12-24T20:56:25.483Z,9.00
2018-12-24T20:58:52.438Z,9.00
2018-12-24T21:01:19.192Z,9.00
2018-12-24T21:03:45.974Z,9.00
2018-12-24T21:06:12.729Z,9.00
2018-12-24T21:08:39.381Z,9.00
2018-12-24T21:11:06.556Z,9.00
2018-12-24T21:13:33.288Z,8.90
2018-12-24T21:15:59.942Z,8.90
2018-12-24T21:18:26.626Z,8.90
2018-12-24T21:20:53.359Z,8.90
2018-12-24T21:23:22.490Z,8.90
2018-12-24T21:25:50.734Z,8.90
2018-12-24T21:28:17.416Z,8.90
2018-12-24T21:30:44.536Z,8.90
2018-12-24T21:33:11.219Z,8.90
2018-12-24T21:35:37.926Z,8.90
2018-12-24T21:38:04.706Z,8.80
2018-12-24T21:40:31.512Z,8.80
2018-12-24T21:43:03.894Z,8.80
2018-12-24T21:45:31.061Z,8.80
2018-12-24T21:47:59.844Z,8.80
2018-12-24T21:50:27.109Z,8.80
2018-12-24T21:52:54.234Z,8.80
2018-12-24T21:55:21.284Z,8.80
2018-12-24T21:57:48.535Z,8.70
2018-12-24T22:00:15.275Z,8.70
2018-12-24T22:02:42.088Z,8.70
2018-12-24T22:05:08.807Z,8.70
2018-12-24T22:07:35.878Z,8.70
2018-12-24T22:10:02.617Z,8.70
2018-12-24T22:12:29.725Z,8.70
2018-12-24T22:14:56.582Z,8.70
2018-12-24T22:17:23.446Z,8.70
2018-12-24T22:19:50.405Z,8.60
2018-12-24T22:22:17.156Z,8.60
2018-12-24T22:24:44.327Z,8.60
2018-12-24T22:27:11.509Z,8.60
2018-12-24T22:29:38.189Z,8.60
2018-12-24T22:32:05.694Z,8.60
2018-12-24T22:34:34.693Z,8.40
2018-12-24T22:37:01.515Z,8.60
2018-12-24T22:39:28.259Z,8.60
2018-12-24T22:41:54.927Z,8.60
2018-12-24T22:44:21.506Z,8.60
2018-12-24T22:46:48.276Z,8.50
2018-12-24T22:49:14.966Z,8.50
2018-12-24T22:51:41.778Z,8.50
2018-12-24T22:54:08.478Z,8.50
2018-12-24T22:56:35.630Z,8.50
2018-12-24T22:59:02.259Z,8.50
2018-12-24T23:01:29.152Z,8.50
2018-12-24T23:03:55.813Z,8.40
2018-12-24T23:06:22.632Z,8.40
2018-12-24T23:08:49.276Z,8.50
2018-12-24T23:11:16.024Z,8.40
2018-12-24T23:13:42.722Z,8.40
2018-12-24T23:16:09.522Z,8.40
2018-12-24T23:18:36.667Z,8.40
2018-12-24T23:21:03.432Z,8.40
2018-12-24T23:23:30.251Z,8.40
2018-12-24T23:25:56.933Z,8.40
2018-12-24T23:28:23.703Z,8.30
2018-12-24T23:30:50.447Z,8.30
2018-12-24T23:33:17.516Z,8.30
2018-12-24T23:35:44.207Z,8.30
2018-12-24T23:38:10.989Z,8.30
2018-12-24T23:40:37.738Z,8.20
2018-12-24T23:43:04.624Z,8.20
2018-12-24T23:45:31.434Z,8.20
2018-12-24T23:47:58.594Z,8.20
2018-12-24T23:50:25.391Z,8.20
2018-12-24T23:52:52.161Z,8.20
2018-12-24T23:55:18.963Z,8.20
2018-12-24T23:57:45.689Z,8.20
